createdAt,value
2023-05-14T00:00:59.786Z,10.40
2023-05-14T00:06:05.208Z,10.31
2023-05-14T00:11:09.162Z,10.19
2023-05-14T00:16:12.206Z,10.15
2023-05-14T00:21:14.954Z,10.14
2023-05-14T00:26:17.672Z,9.99
2023-05-14T00:31:20.427Z,9.92
2023-05-14T00:36:23.131Z,9.80
2023-05-14T00:41:25.822Z,9.63
2023-05-14T00:46:28.743Z,9.55
2023-05-14T00:51:31.562Z,9.59
2023-05-14T00:56:35.305Z,9.53
2023-05-14T01:01:37.860Z,9.44
2023-05-14T01:07:10.846Z,9.35
2023-05-14T01:12:34.719Z,9.29
2023-05-14T01:17:45.232Z,9.18
2023-05-14T01:22:47.804Z,9.07
2023-05-14T01:28:02.125Z,9.00
2023-05-14T01:33:16.554Z,8.91
2023-05-14T01:38:21.590Z,8.85
2023-05-14T01:43:24.514Z,8.79
2023-05-14T01:48:27.211Z,8.77
2023-05-14T01:53:29.842Z,8.70
2023-05-14T01:58:32.412Z,8.64
2023-05-14T02:03:35.070Z,8.66
2023-05-14T02:08:37.676Z,8.64
2023-05-14T02:13:40.230Z,8.52
2023-05-14T02:18:42.862Z,8.35
2023-05-14T02:23:45.520Z,8.29
2023-05-14T02:28:48.244Z,8.25
2023-05-14T02:33:50.851Z,8.17
2023-05-14T02:38:53.443Z,8.10
2023-05-14T02:43:56.051Z,8.07
2023-05-14T02:48:58.988Z,8.03
2023-05-14T02:54:01.785Z,7.96
2023-05-14T02:59:04.811Z,7.95
2023-05-14T03:04:07.984Z,7.96
2023-05-14T03:09:10.791Z,7.94
2023-05-14T03:14:13.412Z,7.93
2023-05-14T03:19:16.030Z,8.05
2023-05-14T03:24:18.717Z,9.02
2023-05-14T03:29:21.332Z,10.25
2023-05-14T03:34:24.301Z,11.27
2023-05-14T03:39:26.897Z,12.19
2023-05-14T03:44:29.527Z,13.07
2023-05-14T03:49:32.108Z,13.88
2023-05-14T03:54:34.767Z,14.62
2023-05-14T03:59:37.365Z,15.22
2023-05-14T04:04:41.121Z,15.86
2023-05-14T04:09:43.882Z,16.35
2023-05-14T04:14:46.530Z,16.85
2023-05-14T04:19:49.121Z,17.58
2023-05-14T04:24:52.464Z,18.40
2023-05-14T04:29:55.051Z,19.02
2023-05-14T04:34:57.744Z,19.52
2023-05-14T04:40:00.406Z,20.04
2023-05-14T04:45:05.276Z,20.85
2023-05-14T04:50:09.834Z,21.63
2023-05-14T04:55:12.426Z,22.32
2023-05-14T05:00:17.432Z,22.74
2023-05-14T05:05:20.703Z,23.26
2023-05-14T05:10:24.133Z,23.77
2023-05-14T05:15:27.508Z,24.21
2023-05-14T05:20:30.142Z,24.62
2023-05-14T05:25:32.934Z,25.17
2023-05-14T05:30:35.841Z,25.54
2023-05-14T05:35:38.513Z,25.78
2023-05-14T05:40:41.265Z,26.05
2023-05-14T05:45:44.220Z,26.56
2023-05-14T05:50:49.697Z,26.73
2023-05-14T05:55:52.446Z,26.85
2023-05-14T06:00:55.625Z,27.17
2023-05-14T06:05:58.208Z,27.49
2023-05-14T06:11:00.767Z,27.67
2023-05-14T06:16:03.596Z,28.01
2023-05-14T06:21:06.506Z,28.30
2023-05-14T06:26:09.047Z,28.34
2023-05-14T06:31:11.733Z,28.46
2023-05-14T06:36:14.364Z,28.64
2023-05-14T06:41:17.109Z,29.03
2023-05-14T06:46:19.684Z,29.26
2023-05-14T06:51:22.239Z,29.43
2023-05-14T06:56:24.916Z,29.61
2023-05-14T07:01:27.617Z,30.15
2023-05-14T07:06:30.860Z,30.36
2023-05-14T07:11:33.912Z,30.76
2023-05-14T07:16:37.094Z,31.13
2023-05-14T07:21:39.803Z,31.36
2023-05-14T07:26:42.428Z,30.82
2023-05-14T07:31:45.278Z,30.93
2023-05-14T07:36:48.226Z,31.29
2023-05-14T07:41:51.434Z,31.58
2023-05-14T07:46:54.097Z,31.77
2023-05-14T07:51:56.773Z,31.94
2023-05-14T07:56:59.374Z,31.95
2023-05-14T08:02:02.265Z,32.02
2023-05-14T08:07:05.909Z,31.81
2023-05-14T08:12:08.890Z,31.58
2023-05-14T08:17:11.562Z,31.44
2023-05-14T08:22:14.317Z,31.17
2023-05-14T08:27:17.147Z,30.95
2023-05-14T08:32:23.327Z,30.86
2023-05-14T08:37:27.288Z,31.11
2023-05-14T08:42:31.393Z,31.21
2023-05-14T08:47:34.351Z,31.03
2023-05-14T08:52:37.937Z,31.16
2023-05-14T08:57:40.752Z,30.78
2023-05-14T09:02:46.551Z,30.53
2023-05-14T09:07:49.922Z,30.71
2023-05-14T09:12:52.569Z,30.60
2023-05-14T09:17:55.485Z,30.49
2023-05-14T09:23:02.732Z,30.49
2023-05-14T09:28:08.340Z,29.87
2023-05-14T09:33:11.114Z,29.93
2023-05-14T09:38:13.714Z,29.72
2023-05-14T09:43:16.315Z,29.96
2023-05-14T09:48:19.909Z,29.86
2023-05-14T09:53:22.724Z,29.79
2023-05-14T09:58:25.507Z,30.02
2023-05-14T10:03:30.964Z,29.77
2023-05-14T10:08:36.136Z,29.54
2023-05-14T10:13:46.316Z,29.45
2023-05-14T10:18:57.014Z,29.71
2023-05-14T10:24:00.710Z,29.22
2023-05-14T10:29:03.367Z,28.21
2023-05-14T10:34:38.515Z,27.71
2023-05-14T10:40:08.263Z,27.54
2023-05-14T10:45:13.874Z,27.58
2023-05-14T10:50:17.727Z,27.57
2023-05-14T10:55:21.778Z,27.50
2023-05-14T11:00:27.731Z,27.22
2023-05-14T11:05:31.692Z,27.53
2023-05-14T11:10:35.799Z,27.38
2023-05-14T11:15:45.426Z,27.04
2023-05-14T11:20:48.016Z,27.34
2023-05-14T11:25:53.185Z,27.43
2023-05-14T11:30:56.299Z,27.00
2023-05-14T11:35:58.885Z,26.75
2023-05-14T11:41:01.440Z,26.42
2023-05-14T11:46:04.439Z,26.06
2023-05-14T11:51:07.166Z,25.64
2023-05-14T11:56:10.097Z,25.33
2023-05-14T12:01:14.145Z,25.03
2023-05-14T12:06:18.188Z,24.95
2023-05-14T12:11:21.991Z,25.06
2023-05-14T12:16:32.572Z,25.01
2023-05-14T12:21:36.678Z,24.97
2023-05-14T12:26:48.512Z,24.80
2023-05-14T12:31:51.352Z,24.67
2023-05-14T12:36:54.129Z,24.56
2023-05-14T12:41:56.653Z,24.57
2023-05-14T12:46:59.344Z,24.72
2023-05-14T12:52:17.405Z,24.78
2023-05-14T12:57:25.484Z,24.84
2023-05-14T13:02:28.202Z,24.60
2023-05-14T13:07:31.646Z,24.65
2023-05-14T13:12:34.384Z,24.99
2023-05-14T13:17:37.153Z,25.09
2023-05-14T13:22:39.929Z,25.18
2023-05-14T13:27:42.534Z,25.47
2023-05-14T13:32:46.140Z,25.46
2023-05-14T13:37:48.783Z,25.30
2023-05-14T13:42:51.417Z,25.07
2023-05-14T13:47:53.984Z,25.06
2023-05-14T13:52:56.756Z,25.16
2023-05-14T13:58:02.376Z,25.23
2023-05-14T14:03:05.698Z,25.25
2023-05-14T14:08:22.771Z,25.19
2023-05-14T14:13:27.970Z,25.14
2023-05-14T14:18:30.672Z,25.18
2023-05-14T14:23:33.553Z,25.37
2023-05-14T14:28:36.351Z,25.68
2023-05-14T14:33:39.297Z,25.88
2023-05-14T14:38:41.971Z,25.89
2023-05-14T14:43:44.767Z,25.77
2023-05-14T14:48:47.414Z,25.62
2023-05-14T14:53:50.081Z,25.47
2023-05-14T14:58:52.708Z,25.37
2023-05-14T15:03:55.269Z,25.30
2023-05-14T15:08:57.854Z,25.27
2023-05-14T15:14:00.445Z,25.43
2023-05-14T15:19:03.088Z,25.41
2023-05-14T15:24:06.859Z,25.30
2023-05-14T15:29:09.471Z,25.22
2023-05-14T15:34:12.046Z,25.13
2023-05-14T15:39:14.753Z,24.98
2023-05-14T15:44:17.552Z,24.90
2023-05-14T15:49:20.346Z,24.98
2023-05-14T15:54:23.079Z,24.97
2023-05-14T15:59:25.700Z,24.94
2023-05-14T16:04:28.374Z,24.89
2023-05-14T16:09:32.124Z,24.74
2023-05-14T16:14:35.830Z,24.64
2023-05-14T16:19:39.732Z,24.59
2023-05-14T16:24:42.637Z,24.47
2023-05-14T16:29:45.492Z,24.33
2023-05-14T16:34:51.685Z,24.14
2023-05-14T16:39:54.978Z,23.94
2023-05-14T16:44:57.621Z,23.76
2023-05-14T16:50:00.224Z,23.58
2023-05-14T16:55:03.110Z,23.44
2023-05-14T17:00:07.815Z,23.32
2023-05-14T17:05:10.483Z,23.26
2023-05-14T17:10:13.158Z,23.21
2023-05-14T17:15:15.947Z,23.22
2023-05-14T17:20:18.804Z,23.27
2023-05-14T17:25:23.658Z,23.29
2023-05-14T17:30:26.604Z,23.25
2023-05-14T17:35:29.251Z,23.13
2023-05-14T17:40:31.963Z,22.97
2023-05-14T17:45:46.253Z,22.77
2023-05-14T17:50:55.635Z,22.56
2023-05-14T17:55:58.357Z,22.33
2023-05-14T18:01:02.373Z,22.09
2023-05-14T18:06:05.360Z,21.88
2023-05-14T18:11:08.022Z,21.69
2023-05-14T18:16:10.724Z,21.46
2023-05-14T18:21:13.490Z,21.24
2023-05-14T18:26:16.329Z,21.08
2023-05-14T18:31:19.020Z,20.95
2023-05-14T18:36:21.965Z,20.80
2023-05-14T18:41:24.893Z,20.63
2023-05-14T18:46:27.964Z,20.40
2023-05-14T18:51:30.816Z,20.19
2023-05-14T18:56:34.742Z,19.95
2023-05-14T19:01:37.341Z,19.75
2023-05-14T19:06:43.012Z,19.58
2023-05-14T19:11:45.630Z,19.41
2023-05-14T19:16:51.505Z,19.26
2023-05-14T19:21:54.352Z,19.12
2023-05-14T19:26:57.063Z,18.93
2023-05-14T19:31:59.804Z,18.68
2023-05-14T19:37:03.186Z,18.43
2023-05-14T19:42:06.494Z,18.27
2023-05-14T19:47:09.283Z,18.18
2023-05-14T19:52:11.976Z,18.08
2023-05-14T19:57:14.604Z,18.03
2023-05-14T20:02:18.599Z,17.87
2023-05-14T20:07:21.465Z,17.63
2023-05-14T20:12:24.051Z,17.33
2023-05-14T20:17:26.870Z,17.13
2023-05-14T20:22:29.499Z,16.95
2023-05-14T20:27:32.676Z,16.75
2023-05-14T20:32:35.585Z,16.59
2023-05-14T20:37:39.041Z,16.40
2023-05-14T20:42:41.621Z,16.22
2023-05-14T20:47:44.559Z,16.00
2023-05-14T20:52:47.320Z,15.84
2023-05-14T20:57:49.898Z,15.69
2023-05-14T21:02:53.082Z,15.56
2023-05-14T21:07:55.772Z,15.46
2023-05-14T21:12:58.385Z,15.43
2023-05-14T21:18:02.180Z,15.37
2023-05-14T21:23:04.984Z,15.31
2023-05-14T21:28:07.811Z,15.20
2023-05-14T21:33:10.401Z,15.07
2023-05-14T21:38:13.001Z,14.91
2023-05-14T21:43:15.646Z,14.81
2023-05-14T21:48:18.424Z,14.71
2023-05-14T21:53:21.130Z,14.64
2023-05-14T21:58:23.911Z,14.62
2023-05-14T22:03:26.719Z,14.56
2023-05-14T22:08:30.726Z,14.49
2023-05-14T22:13:35.071Z,14.48
2023-05-14T22:18:38.357Z,14.45
2023-05-14T22:23:41.074Z,14.40
2023-05-14T22:28:43.697Z,14.42
2023-05-14T22:33:46.358Z,14.38
2023-05-14T22:38:48.926Z,14.25
2023-05-14T22:43:51.697Z,14.14
2023-05-14T22:48:54.558Z,14.08
2023-05-14T22:53:57.715Z,13.99
2023-05-14T22:59:00.683Z,13.82
2023-05-14T23:04:03.386Z,13.64
2023-05-14T23:09:06.057Z,13.52
2023-05-14T23:14:09.057Z,13.50
2023-05-14T23:19:12.337Z,13.43
2023-05-14T23:24:15.411Z,13.34
2023-05-14T23:29:18.075Z,13.28
2023-05-14T23:34:22.124Z,13.23
2023-05-14T23:39:24.749Z,13.14
2023-05-14T23:44:27.486Z,13.06
2023-05-14T23:49:30.116Z,12.98
2023-05-14T23:54:32.735Z,12.94
2023-05-14T23:59:35.529Z,12.86
